KDVP

Slayton Municipal Airport

Slayton, Minnesota, USA
METAR KDVP 271146Z AUTO 16004KT 7SM CLR 18/09 A2983 RMK AO2 T01770094
Observed Flight Rules
May-27 @ 11:46 UTC (17 minutes ago) Visual Flight Rules
Wind Visibility Clouds
160° at 4 knots 7 miles
  • Clear skies
Temperatures Readings
Current 18°C / 64°F
Dewpoint 9°C / 48°F
Humidity 56%
Altimeter 29.83" Hg
Pressure 1010 hPa
Elevation 495
METAR KDVP 271146Z AUTO 16004KT 7SM CLR 18/09 A2983 RMK AO2 T01770094
Observed Flight Rules
May-27 @ 11:46 UTC
(17 minutes ago)
VFR
Wind Visibility
160° at 4 knots 7 miles
Clouds
  • Clear skies
Temperature Dewpoint
18°C / 64°F 9°C / 48°F
Humidity Altimeter Pressure
56% 29.83" Hg 1010 hPa